Time,TemperatureF,DewpointF,PressureIn,WindDirection,WindDirectionDegrees,WindSpeedMPH,WindSpeedGustMPH,Humidity,HourlyPrecipIn,Conditions,Clouds,dailyrainin,SoftwareType,DateUTC
2013-05-18 00:02:00,53.0,47.0,30.02,NE,45,1.0,1.0,80,-99.99,,,-99.99,,2013-05-18 05:02:00,
2013-05-18 00:12:00,53.0,47.0,30.02,NE,45,1.0,1.0,80,-99.99,,,-99.99,,2013-05-18 05:12:00,
2013-05-18 00:22:00,53.0,47.0,30.03,North,0,0.0,2.0,80,-99.99,,,-99.99,,2013-05-18 05:22:00,
2013-05-18 00:31:00,53.0,47.0,30.03,East,90,1.0,1.0,80,-99.99,,,-99.99,,2013-05-18 05:31:00,
2013-05-18 00:42:00,53.0,47.0,30.03,East,90,1.0,1.0,80,-99.99,,,-99.99,,2013-05-18 05:42:00,
2013-05-18 00:52:00,53.0,47.0,30.02,NE,56,0.0,1.0,81,-99.99,,,-99.99,,2013-05-18 05:52:00,
2013-05-18 01:02:00,53.0,47.0,30.01,East,85,0.0,2.0,81,-99.99,,,-99.99,,2013-05-18 06:02:00,
2013-05-18 01:11:00,53.0,47.0,30.01,East,85,0.0,2.0,81,-99.99,,,-99.99,,2013-05-18 06:11:00,
2013-05-18 01:22:00,53.0,47.0,30.02,East,90,0.0,1.0,81,-99.99,,,-99.99,,2013-05-18 06:22:00,
2013-05-18 01:31:00,53.0,47.0,30.02,SE,130,1.0,2.0,81,-99.99,,,-99.99,,2013-05-18 06:31:00,
2013-05-18 01:42:00,53.0,47.0,30.02,SE,130,1.0,2.0,81,-99.99,,,-99.99,,2013-05-18 06:42:00,
2013-05-18 01:52:00,53.0,48.0,30.02,SE,140,0.0,1.0,82,-99.99,,,-99.99,,2013-05-18 06:52:00,
2013-05-18 02:01:00,53.0,48.0,30.01,SSW,202,1.0,1.0,82,-99.99,,,-99.99,,2013-05-18 07:01:00,
2013-05-18 02:11:00,53.0,48.0,30.01,SSW,202,1.0,1.0,82,-99.99,,,-99.99,,2013-05-18 07:11:00,
2013-05-18 02:21:00,53.0,48.0,30.01,NE,56,0.0,2.0,82,-99.99,,,-99.99,,2013-05-18 07:21:00,
2013-05-18 02:31:00,53.0,48.0,30.01,East,90,0.0,2.0,82,-99.99,,,-99.99,,2013-05-18 07:31:00,
2013-05-18 02:42:00,53.0,48.0,30.01,East,90,0.0,2.0,82,-99.99,,,-99.99,,2013-05-18 07:42:00,
2013-05-18 02:52:00,53.0,48.0,30.01,East,90,0.0,2.0,82,-99.99,,,-99.99,,2013-05-18 07:52:00,
2013-05-18 03:01:00,53.0,48.0,29.99,East,84,1.0,2.0,82,-99.99,,,-99.99,,2013-05-18 08:01:00,
2013-05-18 03:11:00,53.0,48.0,29.99,East,84,1.0,2.0,82,-99.99,,,-99.99,,2013-05-18 08:11:00,
2013-05-18 03:21:00,52.0,47.0,30.00,SE,135,0.0,1.0,82,-99.99,,,-99.99,,2013-05-18 08:21:00,
2013-05-18 03:32:00,52.0,47.0,30.00,SE,135,0.0,1.0,82,-99.99,,,-99.99,,2013-05-18 08:32:00,
2013-05-18 03:42:00,52.0,47.0,30.00,SE,135,0.0,1.0,82,-99.99,,,-99.99,,2013-05-18 08:42:00,
2013-05-18 03:52:00,53.0,48.0,29.99,NE,45,0.0,1.0,82,-99.99,,,-99.99,,2013-05-18 08:52:00,
2013-05-18 04:02:00,53.0,47.0,29.99,East,99,1.0,1.0,81,-99.99,,,-99.99,,2013-05-18 09:02:00,
2013-05-18 04:11:00,53.0,47.0,29.99,East,99,1.0,1.0,81,-99.99,,,-99.99,,2013-05-18 09:11:00,
2013-05-18 04:22:00,52.0,47.0,29.99,NE,45,0.0,1.0,82,-99.99,,,-99.99,,2013-05-18 09:22:00,
2013-05-18 04:32:00,52.0,47.0,29.99,East,90,1.0,1.0,82,-99.99,,,-99.99,,2013-05-18 09:32:00,
2013-05-18 04:40:00,52.0,47.0,29.99,NNE,15,0.0,1.0,82,-99.99,,,-99.99,,2013-05-18 09:40:00,
2013-05-18 04:43:00,52.0,47.0,29.99,East,90,1.0,1.0,82,-99.99,,,-99.99,,2013-05-18 09:43:00,
2013-05-18 04:53:00,52.0,47.0,29.99,ESE,108,0.0,2.0,82,-99.99,,,-99.99,,2013-05-18 09:53:00,
2013-05-18 05:02:00,52.0,47.0,29.99,NNE,15,0.0,1.0,82,-99.99,,,-99.99,,2013-05-18 10:02:00,
2013-05-18 05:12:00,52.0,47.0,29.99,NNE,15,0.0,1.0,82,-99.99,,,-99.99,,2013-05-18 10:12:00,
2013-05-18 05:23:00,52.0,47.0,29.99,NNE,15,0.0,1.0,82,-99.99,,,-99.99,,2013-05-18 10:23:00,
2013-05-18 05:33:00,52.0,47.0,29.99,NNE,15,0.0,1.0,82,-99.99,,,-99.99,,2013-05-18 10:33:00,
2013-05-18 05:53:00,52.0,47.0,30.00,ESE,112,1.0,1.0,82,-99.99,,,-99.99,,2013-05-18 10:53:00,
2013-05-18 06:03:00,52.0,47.0,29.99,South,180,0.0,1.0,82,-99.99,,,-99.99,,2013-05-18 11:03:00,
2013-05-18 06:12:00,52.0,47.0,29.99,South,180,0.0,1.0,82,-99.99,,,-99.99,,2013-05-18 11:12:00,
2013-05-18 06:22:00,52.0,47.0,30.00,East,90,0.0,0.0,82,-99.99,,,-99.99,,2013-05-18 11:22:00,
2013-05-18 06:33:00,52.0,47.0,30.00,East,90,0.0,0.0,82,-99.99,,,-99.99,,2013-05-18 11:33:00,
2013-05-18 06:40:00,53.0,48.0,29.99,East,85,1.0,2.0,82,-99.99,,,-99.99,,2013-05-18 11:40:00,
2013-05-18 06:42:00,52.0,47.0,30.00,East,90,0.0,0.0,82,-99.99,,,-99.99,,2013-05-18 11:42:00,
2013-05-18 06:52:00,52.0,47.0,30.00,East,90,0.0,0.0,82,-99.99,,,-99.99,,2013-05-18 11:52:00,
2013-05-18 07:01:00,53.0,48.0,29.99,East,85,1.0,2.0,82,-99.99,,,-99.99,,2013-05-18 12:01:00,
2013-05-18 07:12:00,53.0,48.0,29.99,East,85,1.0,2.0,82,-99.99,,,-99.99,,2013-05-18 12:12:00,
2013-05-18 07:23:00,53.0,48.0,29.99,East,85,1.0,2.0,82,-99.99,,,-99.99,,2013-05-18 12:23:00,
2013-05-18 07:33:00,53.0,48.0,29.99,East,85,1.0,2.0,82,-99.99,,,-99.99,,2013-05-18 12:33:00,
2013-05-18 08:01:00,55.0,49.0,30.00,SE,126,2.0,3.0,79,-99.99,,,-99.99,,2013-05-18 13:01:00,
2013-05-18 08:11:00,55.0,49.0,30.00,SE,126,2.0,3.0,79,-99.99,,,-99.99,,2013-05-18 13:11:00,
2013-05-18 08:21:00,55.0,48.0,30.00,NE,49,1.0,1.0,78,-99.99,,,-99.99,,2013-05-18 13:21:00,
2013-05-18 08:33:00,56.0,49.0,29.99,East,85,0.0,2.0,77,-99.99,,,-99.99,,2013-05-18 13:33:00,
2013-05-18 08:43:00,56.0,49.0,29.99,East,85,0.0,2.0,77,-99.99,,,-99.99,,2013-05-18 13:43:00,
2013-05-18 08:52:00,57.0,50.0,30.00,East,90,2.0,2.0,76,-99.99,,,-99.99,,2013-05-18 13:52:00,
2013-05-18 09:03:00,60.0,51.0,29.99,NE,45,0.0,2.0,71,-99.99,,,-99.99,,2013-05-18 14:03:00,
2013-05-18 09:10:00,63.0,52.0,30.00,SE,126,2.0,2.0,67,-99.99,,,-99.99,,2013-05-18 14:10:00,
2013-05-18 09:12:00,60.0,51.0,29.99,NE,45,0.0,2.0,71,-99.99,,,-99.99,,2013-05-18 14:12:00,
2013-05-18 09:22:00,60.0,51.0,29.99,NE,45,0.0,2.0,71,-99.99,,,-99.99,,2013-05-18 14:22:00,
2013-05-18 09:33:00,63.0,52.0,30.00,SE,126,2.0,2.0,67,-99.99,,,-99.99,,2013-05-18 14:33:00,
2013-05-18 09:42:00,63.0,52.0,30.00,SE,126,2.0,2.0,67,-99.99,,,-99.99,,2013-05-18 14:42:00,
2013-05-18 09:54:00,63.0,52.0,30.00,SE,126,2.0,2.0,67,-99.99,,,-99.99,,2013-05-18 14:54:00,
2013-05-18 10:03:00,63.0,52.0,30.00,SE,126,2.0,2.0,67,-99.99,,,-99.99,,2013-05-18 15:03:00,
2013-05-18 10:23:00,63.0,51.0,29.99,ENE,72,2.0,3.0,66,-99.99,,,-99.99,,2013-05-18 15:23:00,
2013-05-18 10:33:00,63.0,51.0,29.99,ENE,72,2.0,3.0,66,-99.99,,,-99.99,,2013-05-18 15:33:00,
2013-05-18 10:43:00,63.0,51.0,29.99,ENE,72,2.0,3.0,66,-99.99,,,-99.99,,2013-05-18 15:43:00,
2013-05-18 10:53:00,64.0,53.0,30.00,East,90,0.0,2.0,67,-99.99,,,-99.99,,2013-05-18 15:53:00,
2013-05-18 11:02:00,64.0,53.0,30.00,East,90,0.0,2.0,67,-99.99,,,-99.99,,2013-05-18 16:02:00,
2013-05-18 11:13:00,64.0,53.0,30.00,East,90,0.0,2.0,67,-99.99,,,-99.99,,2013-05-18 16:13:00,
2013-05-18 11:22:00,65.0,54.0,29.99,East,99,1.0,3.0,67,-99.99,,,-99.99,,2013-05-18 16:22:00,
2013-05-18 11:33:00,65.0,54.0,29.99,East,99,1.0,4.0,67,-99.99,,,-99.99,,2013-05-18 16:33:00,
2013-05-18 11:42:00,65.0,54.0,29.99,East,99,1.0,4.0,67,-99.99,,,-99.99,,2013-05-18 16:42:00,
2013-05-18 11:52:00,66.0,55.0,29.99,SE,137,1.0,4.0,68,-99.99,,,-99.99,,2013-05-18 16:52:00,
2013-05-18 12:02:00,66.0,55.0,29.99,SE,137,1.0,4.0,68,-99.99,,,-99.99,,2013-05-18 17:02:00,
2013-05-18 12:12:00,66.0,55.0,29.99,SE,137,1.0,4.0,68,-99.99,,,-99.99,,2013-05-18 17:12:00,
2013-05-18 12:22:00,67.0,56.0,29.98,ESE,106,0.0,3.0,68,-99.99,,,-99.99,,2013-05-18 17:22:00,
2013-05-18 12:32:00,67.0,56.0,29.98,ESE,106,0.0,3.0,68,-99.99,,,-99.99,,2013-05-18 17:32:00,
2013-05-18 12:42:00,67.0,56.0,29.98,ESE,106,0.0,3.0,68,-99.99,,,-99.99,,2013-05-18 17:42:00,
2013-05-18 12:51:00,69.0,58.0,29.98,SE,135,1.0,2.0,68,-99.99,,,-99.99,,2013-05-18 17:51:00,
2013-05-18 12:52:00,67.0,56.0,29.98,ESE,106,0.0,3.0,68,-99.99,,,-99.99,,2013-05-18 17:52:00,
2013-05-18 13:01:00,70.0,59.0,29.98,South,180,0.0,3.0,68,-99.99,,,-99.99,,2013-05-18 18:01:00,
2013-05-18 13:12:00,70.0,59.0,29.98,South,180,0.0,3.0,68,-99.99,,,-99.99,,2013-05-18 18:12:00,
2013-05-18 13:21:00,69.0,58.0,29.98,SE,135,1.0,2.0,68,-99.99,,,-99.99,,2013-05-18 18:21:00,
2013-05-18 13:32:00,69.0,58.0,29.98,SE,135,1.0,2.0,68,-99.99,,,-99.99,,2013-05-18 18:32:00,
2013-05-18 13:41:00,70.0,59.0,29.97,South,173,3.0,3.0,67,-99.99,,,-99.99,,2013-05-18 18:41:00,
2013-05-18 13:42:00,69.0,58.0,29.98,SE,135,1.0,2.0,68,-99.99,,,-99.99,,2013-05-18 18:42:00,
2013-05-18 14:02:00,70.0,59.0,29.97,South,173,3.0,3.0,67,-99.99,,,-99.99,,2013-05-18 19:02:00,
2013-05-18 14:12:00,70.0,59.0,29.97,South,173,3.0,3.0,67,-99.99,,,-99.99,,2013-05-18 19:12:00,
2013-05-18 14:22:00,70.0,59.0,29.97,South,173,3.0,3.0,67,-99.99,,,-99.99,,2013-05-18 19:22:00,
2013-05-18 14:32:00,70.0,59.0,29.97,South,173,3.0,3.0,67,-99.99,,,-99.99,,2013-05-18 19:32:00,
2013-05-18 15:01:00,74.0,60.0,29.93,East,90,1.0,3.0,62,-99.99,,,-99.99,,2013-05-18 20:01:00,
2013-05-18 15:22:00,74.0,60.0,29.93,East,90,1.0,3.0,62,-99.99,,,-99.99,,2013-05-18 20:22:00,
2013-05-18 15:32:00,74.0,60.0,29.93,East,90,1.0,3.0,62,-99.99,,,-99.99,,2013-05-18 20:32:00,
2013-05-18 15:42:00,74.0,60.0,29.93,East,90,1.0,3.0,62,-99.99,,,-99.99,,2013-05-18 20:42:00,
2013-05-18 15:52:00,74.0,60.0,29.93,East,90,1.0,3.0,62,-99.99,,,-99.99,,2013-05-18 20:52:00,
2013-05-18 16:51:00,76.0,61.0,29.89,ESE,119,3.0,4.0,59,-99.99,,,-99.99,,2013-05-18 21:51:00,
2013-05-18 17:12:00,76.0,61.0,29.89,ESE,119,3.0,4.0,59,-99.99,,,-99.99,,2013-05-18 22:12:00,
2013-05-18 17:23:00,76.0,61.0,29.89,ESE,119,3.0,4.0,59,-99.99,,,-99.99,,2013-05-18 22:23:00,
2013-05-18 17:33:00,76.0,61.0,29.89,ESE,119,3.0,4.0,59,-99.99,,,-99.99,,2013-05-18 22:33:00,
2013-05-18 17:42:00,76.0,61.0,29.89,ESE,119,3.0,4.0,59,-99.99,,,-99.99,,2013-05-18 22:42:00,
2013-05-18 20:31:00,71.0,59.0,29.89,SE,135,0.0,0.0,66,-99.99,,,-99.99,,2013-05-19 01:31:00,
2013-05-18 20:52:00,71.0,59.0,29.89,SE,135,0.0,0.0,66,-99.99,,,-99.99,,2013-05-19 01:52:00,
2013-05-18 21:01:00,71.0,59.0,29.89,SE,135,0.0,0.0,66,-99.99,,,-99.99,,2013-05-19 02:01:00,
2013-05-18 21:11:00,71.0,59.0,29.89,SE,135,0.0,0.0,66,-99.99,,,-99.99,,2013-05-19 02:11:00,
2013-05-18 21:21:00,71.0,59.0,29.89,SE,135,0.0,0.0,66,-99.99,,,-99.99,,2013-05-19 02:21:00,
2013-05-18 22:01:00,69.0,60.0,29.90,South,180,0.0,0.0,72,-99.99,,,-99.99,,2013-05-19 03:01:00,
2013-05-18 22:11:00,69.0,60.0,29.90,South,180,0.0,0.0,72,-99.99,,,-99.99,,2013-05-19 03:11:00,
2013-05-18 22:22:00,68.0,59.0,29.88,South,180,0.0,0.0,73,-99.99,,,-99.99,,2013-05-19 03:22:00,
2013-05-18 22:33:00,68.0,59.0,29.88,South,180,0.0,0.0,73,-99.99,,,-99.99,,2013-05-19 03:33:00,
2013-05-18 22:42:00,68.0,59.0,29.88,South,180,0.0,0.0,73,-99.99,,,-99.99,,2013-05-19 03:42:00,
2013-05-18 22:51:00,67.0,59.0,29.87,South,180,0.0,0.0,76,-99.99,,,-99.99,,2013-05-19 03:51:00,
2013-05-18 22:53:00,67.0,59.0,29.88,East,90,0.0,0.0,75,-99.99,,,-99.99,,2013-05-19 03:53:00,
2013-05-18 23:02:00,67.0,59.0,29.88,East,90,0.0,0.0,75,-99.99,,,-99.99,,2013-05-19 04:02:00,
2013-05-18 23:12:00,67.0,59.0,29.88,East,90,0.0,0.0,75,-99.99,,,-99.99,,2013-05-19 04:12:00,
2013-05-18 23:23:00,67.0,59.0,29.87,South,180,0.0,0.0,76,-99.99,,,-99.99,,2013-05-19 04:23:00,
2013-05-18 23:33:00,67.0,59.0,29.87,South,180,0.0,0.0,76,-99.99,,,-99.99,,2013-05-19 04:33:00,
2013-05-18 23:42:00,67.0,59.0,29.87,South,180,0.0,0.0,76,-99.99,,,-99.99,,2013-05-19 04:42:00,